Time;durP1;ratioP1;P1;durP2;ratioP2;P2;SDS_P1;SDS_P2;PMS_P1;PMS_P2;Temp;Humidity;BMP_temperature;BMP_pressure;BME280_temperature;BME280_humidity;BME280_pressure;Samples;Min_cycle;Max_cycle;Signal;HPM_P1;HPM_P2
2023/12/05 00:01:53;;;;;;;5.15;2.58;;;0.50;99.90;;;;;;5034738;28;20037;-62
2023/12/05 00:04:20;;;;;;;5.57;2.95;;;0.60;99.90;;;;;;5028994;28;20044;-62
2023/12/05 00:06:47;;;;;;;5.40;2.47;;;0.70;99.90;;;;;;5035249;28;20033;-62
2023/12/05 00:09:15;;;;;;;5.57;2.75;;;0.60;99.90;;;;;;5035237;28;20049;-62
2023/12/05 00:11:42;;;;;;;;;;;0.60;99.90;;;;;;5031560;28;20128;-62
2023/12/05 00:14:08;;;;;;;4.45;2.40;;;0.60;99.90;;;;;;5035014;28;20349;-62
2023/12/05 00:16:35;;;;;;;6.80;3.05;;;0.60;99.90;;;;;;5034781;28;20409;-62
2023/12/05 00:19:02;;;;;;;3.53;2.03;;;0.60;99.90;;;;;;5034977;28;20033;-61
2023/12/05 00:21:29;;;;;;;4.18;2.40;;;0.60;99.90;;;;;;5028165;28;20105;-62
2023/12/05 00:23:56;;;;;;;4.03;2.22;;;0.70;99.90;;;;;;5035060;28;20045;-62
2023/12/05 00:26:23;;;;;;;5.35;2.60;;;0.70;99.90;;;;;;5034883;28;20084;-62
2023/12/05 00:28:49;;;;;;;6.43;2.70;;;0.70;99.90;;;;;;5033649;28;20517;-62
2023/12/05 00:31:16;;;;;;;6.82;2.72;;;0.60;99.90;;;;;;5034064;28;20049;-62
2023/12/05 00:33:43;;;;;;;4.65;3.08;;;0.60;99.90;;;;;;5034605;28;20045;-62
2023/12/05 00:36:10;;;;;;;;;;;0.60;99.90;;;;;;5030600;28;20061;-61
2023/12/05 00:38:37;;;;;;;5.40;2.40;;;0.50;99.90;;;;;;5034021;28;19932;-62
2023/12/05 00:41:04;;;;;;;3.28;1.67;;;0.50;99.90;;;;;;5034371;28;20048;-62
2023/12/05 00:43:31;;;;;;;4.65;2.47;;;0.50;99.90;;;;;;5016438;28;20504;-61
2023/12/05 00:45:58;;;;;;;7.15;2.97;;;0.40;99.90;;;;;;5030292;28;20406;-62
2023/12/05 00:48:25;;;;;;;4.93;2.30;;;0.50;99.90;;;;;;5032282;28;20034;-62
2023/12/05 00:50:52;;;;;;;6.25;2.33;;;0.60;99.90;;;;;;5034253;28;20041;-61
2023/12/05 00:53:19;;;;;;;;;;;0.60;99.90;;;;;;5034622;28;20125;-62
2023/12/05 00:55:46;;;;;;;4.80;2.25;;;0.60;99.90;;;;;;5026203;28;19927;-62
2023/12/05 00:58:13;;;;;;;5.03;2.47;;;0.60;99.90;;;;;;5029879;28;20044;-62
2023/12/05 01:00:40;;;;;;;3.70;2.20;;;0.50;99.90;;;;;;5033988;28;20363;-62
2023/12/05 01:03:07;;;;;;;3.42;2.28;;;0.50;99.90;;;;;;5033701;28;20053;-62
2023/12/05 01:05:34;;;;;;;5.25;2.40;;;0.50;99.90;;;;;;5027860;28;20038;-62
2023/12/05 01:08:02;;;;;;;4.40;2.63;;;0.60;99.90;;;;;;5030038;28;20052;-62
2023/12/05 01:10:29;;;;;;;4.97;2.78;;;0.60;99.90;;;;;;5034009;28;20135;-62
2023/12/05 01:12:56;;;;;;;4.50;2.47;;;0.70;99.90;;;;;;5033765;28;20045;-62
2023/12/05 01:15:23;;;;;;;3.67;2.95;;;0.70;99.90;;;;;;5025708;28;20045;-62
2023/12/05 01:17:50;;;;;;;4.03;2.70;;;0.60;99.90;;;;;;5034210;28;20440;-62
2023/12/05 01:20:17;;;;;;;4.13;2.40;;;0.60;99.90;;;;;;5033930;28;20049;-62
2023/12/05 01:22:44;;;;;;;6.43;2.72;;;0.70;99.90;;;;;;5025522;28;20080;-61
2023/12/05 01:25:11;;;;;;;5.93;2.60;;;0.60;99.90;;;;;;5030767;28;20078;-62
2023/12/05 01:27:38;;;;;;;5.20;2.45;;;0.60;99.90;;;;;;5033656;28;20060;-62
2023/12/05 01:30:05;;;;;;;3.72;2.28;;;0.60;99.90;;;;;;5031667;28;20379;-62
2023/12/05 01:32:32;;;;;;;6.50;2.95;;;0.70;99.90;;;;;;5027386;28;20052;-62
2023/12/05 01:34:59;;;;;;;5.07;2.70;;;0.80;99.90;;;;;;5032950;28;20172;-62
2023/12/05 01:37:26;;;;;;;4.05;2.33;;;0.80;99.90;;;;;;5033561;28;20079;-62
2023/12/05 01:39:53;;;;;;;6.22;2.33;;;0.80;99.90;;;;;;5029189;28;20037;-62
2023/12/05 01:42:19;;;;;;;6.47;2.60;;;0.80;99.90;;;;;;5033240;28;20042;-62
2023/12/05 01:44:46;;;;;;;4.95;2.60;;;0.80;99.90;;;;;;5025449;28;20037;-62
2023/12/05 01:47:16;;;;;;;3.80;2.13;;;0.70;99.90;;;;;;5022285;28;20042;-62
2023/12/05 01:49:44;;;;;;;7.25;2.75;;;0.70;99.90;;;;;;5032951;28;20041;-62
2023/12/05 01:52:12;;;;;;;3.30;1.83;;;0.80;99.90;;;;;;5032440;28;20080;-62
2023/12/05 01:54:39;;;;;;;;;;;0.80;99.90;;;;;;5033635;28;20049;-62
2023/12/05 01:57:06;;;;;;;5.30;2.38;;;0.90;99.90;;;;;;5028413;28;20393;-62
2023/12/05 01:59:33;;;;;;;6.25;3.00;;;0.90;99.90;;;;;;5032774;28;20042;-62
2023/12/05 02:02:02;;;;;;;4.13;2.50;;;0.90;99.90;;;;;;5023074;28;20038;-62
2023/12/05 02:04:30;;;;;;;4.60;2.47;;;0.90;99.90;;;;;;5030788;28;20073;-62
2023/12/05 02:06:59;;;;;;;5.75;2.75;;;0.90;99.90;;;;;;5032035;28;20421;-62
2023/12/05 02:09:26;;;;;;;7.65;3.05;;;0.90;99.90;;;;;;5033188;28;20438;-62
2023/12/05 02:11:53;;;;;;;8.93;3.38;;;0.80;99.90;;;;;;5024139;28;20037;-62
2023/12/05 02:14:19;;;;;;;6.43;2.80;;;0.90;99.90;;;;;;5032945;28;20037;-62
2023/12/05 02:17:19;;;;;;;5.70;2.47;;;0.90;99.90;;;;;;5014131;28;20037;-62
2023/12/05 02:20:18;;;;;;;4.20;2.20;;;1.00;99.90;;;;;;5028959;28;20042;-62
2023/12/05 02:22:51;;;;;;;4.32;1.98;;;1.00;99.90;;;;;;5032076;28;20041;-62
2023/12/05 02:25:55;;;;;;;5.35;2.40;;;1.10;99.90;;;;;;5014933;28;20038;-64
2023/12/05 02:28:26;;;;;;;8.50;2.90;;;1.00;99.90;;;;;;5013762;28;20056;-64
2023/12/05 02:30:53;;;;;;;7.00;2.92;;;0.90;99.90;;;;;;5024374;28;20519;-62
2023/12/05 02:33:20;;;;;;;;;;;0.90;99.90;;;;;;5025612;28;20041;-62
2023/12/05 02:35:58;;;;;;;4.90;1.83;;;0.90;99.90;;;;;;5024298;28;19925;-62
2023/12/05 02:38:51;;;;;;;5.50;2.25;;;1.00;99.90;;;;;;5032249;28;20064;-62
2023/12/05 02:41:20;;;;;;;5.80;2.60;;;1.10;99.90;;;;;;5032320;28;20037;-62
2023/12/05 02:43:58;;;;;;;4.90;2.85;;;1.00;99.90;;;;;;5025348;28;20042;-62
2023/12/05 02:46:26;;;;;;;5.82;3.05;;;0.90;99.90;;;;;;5032479;28;20052;-62
2023/12/05 02:48:54;;;;;;;6.95;3.47;;;0.80;99.90;;;;;;5024518;28;20128;-62
2023/12/05 02:51:21;;;;;;;7.10;3.65;;;0.60;99.90;;;;;;5031592;28;20052;-62
2023/12/05 02:53:48;;;;;;;15.90;4.05;;;0.60;99.90;;;;;;5029216;28;20042;-62
2023/12/05 02:56:17;;;;;;;6.20;2.50;;;0.50;99.90;;;;;;5028388;28;20037;-61
2023/12/05 02:58:43;;;;;;;6.25;3.72;;;0.50;99.90;;;;;;5023322;28;20433;-62
2023/12/05 03:01:10;;;;;;;5.85;3.72;;;0.50;99.90;;;;;;5013836;28;20071;-62
2023/12/05 03:03:37;;;;;;;7.85;3.60;;;0.40;99.90;;;;;;5024174;28;20034;-62
2023/12/05 03:06:04;;;;;;;6.25;3.67;;;0.40;99.90;;;;;;5025377;28;20045;-62
2023/12/05 03:08:31;;;;;;;4.88;3.58;;;0.40;99.90;;;;;;5031643;28;20049;-62
2023/12/05 03:10:58;;;;;;;8.88;3.78;;;0.40;99.90;;;;;;5030301;28;20042;-62
2023/12/05 03:13:32;;;;;;;6.68;3.30;;;0.40;99.90;;;;;;5029042;28;20053;-62
2023/12/05 03:15:59;;;;;;;12.57;4.10;;;0.50;99.90;;;;;;5037420;28;20684;-62
2023/12/05 03:18:26;;;;;;;8.52;4.35;;;0.50;99.90;;;;;;5027952;28;20036;-62
2023/12/05 03:20:53;;;;;;;9.35;3.55;;;0.50;99.90;;;;;;5030446;28;20046;-62
2023/12/05 03:23:20;;;;;;;6.63;3.70;;;0.50;99.90;;;;;;5013995;28;20129;-62
2023/12/05 03:25:46;;;;;;;7.32;3.70;;;0.50;99.90;;;;;;5028967;28;20448;-62
2023/12/05 03:28:13;;;;;;;4.57;2.78;;;0.60;99.90;;;;;;5031610;28;20041;-62
2023/12/05 03:30:40;;;;;;;9.25;3.92;;;0.50;99.90;;;;;;5031266;28;20052;-62
2023/12/05 03:33:07;;;;;;;6.45;3.65;;;0.50;99.90;;;;;;5031875;28;20045;-62
2023/12/05 03:35:34;;;;;;;5.90;3.85;;;0.50;99.90;;;;;;5028702;28;20544;-62
2023/12/05 03:38:00;;;;;;;6.40;2.90;;;0.50;99.90;;;;;;5031595;28;20049;-62
2023/12/05 03:40:27;;;;;;;6.93;3.90;;;0.50;99.90;;;;;;5030732;28;20046;-62
2023/12/05 03:42:55;;;;;;;6.88;3.72;;;0.50;99.90;;;;;;5031211;28;20034;-62
2023/12/05 03:45:22;;;;;;;8.35;3.55;;;0.60;99.90;;;;;;5027860;28;20042;-62
2023/12/05 03:47:48;;;;;;;7.57;4.10;;;0.60;99.90;;;;;;5029381;28;20196;-62
2023/12/05 03:50:15;;;;;;;9.23;4.10;;;0.60;99.90;;;;;;5027652;28;20062;-62
2023/12/05 03:52:42;;;;;;;4.88;2.67;;;0.60;99.90;;;;;;5027308;28;20068;-62
2023/12/05 03:55:09;;;;;;;4.93;2.75;;;0.50;99.90;;;;;;5031618;28;20513;-62
2023/12/05 03:57:35;;;;;;;6.60;3.88;;;0.60;99.90;;;;;;5029781;28;20041;-62
2023/12/05 04:00:03;;;;;;;7.00;4.10;;;0.60;99.90;;;;;;5031389;28;20481;-62
2023/12/05 04:02:37;;;;;;;7.05;3.97;;;0.60;99.90;;;;;;5030771;28;20504;-62
2023/12/05 04:05:04;;;;;;;8.82;4.60;;;0.60;99.90;;;;;;5025520;28;20120;-62
2023/12/05 04:07:31;;;;;;;;;;;0.60;99.90;;;;;;5031677;28;20042;-62
2023/12/05 04:09:57;;;;;;;5.85;3.38;;;0.60;99.90;;;;;;5030316;28;19921;-62
2023/12/05 04:12:24;;;;;;;4.30;2.58;;;0.50;99.90;;;;;;5030932;28;20048;-62
2023/12/05 04:14:51;;;;;;;5.05;2.58;;;0.50;99.90;;;;;;5024384;28;20077;-62
2023/12/05 04:17:18;;;;;;;6.65;3.30;;;0.50;99.90;;;;;;5031390;28;20056;-62
2023/12/05 04:19:44;;;;;;;5.30;2.88;;;0.50;99.90;;;;;;5012420;28;20129;-62
2023/12/05 04:22:11;;;;;;;4.40;2.80;;;0.50;99.90;;;;;;5029903;28;20441;-62
2023/12/05 04:24:38;;;;;;;5.05;2.63;;;0.50;99.90;;;;;;5030694;28;20044;-62
2023/12/05 04:27:05;;;;;;;4.63;2.03;;;0.50;99.90;;;;;;5027137;28;20037;-62
2023/12/05 04:29:32;;;;;;;6.38;3.33;;;0.50;99.90;;;;;;5030862;28;20050;-62
2023/12/05 04:32:01;;;;;;;6.40;2.72;;;0.50;99.90;;;;;;5012424;28;20037;-62
2023/12/05 04:34:28;;;;;;;6.88;3.15;;;0.50;99.90;;;;;;5027757;28;20045;-62
2023/12/05 04:36:55;;;;;;;6.63;3.30;;;0.50;99.90;;;;;;5030520;28;20069;-62
2023/12/05 04:39:22;;;;;;;4.90;2.80;;;0.50;99.90;;;;;;5031549;28;20037;-62
2023/12/05 04:41:49;;;;;;;4.00;1.88;;;0.50;99.90;;;;;;5032747;28;20113;-63
2023/12/05 04:44:16;;;;;;;3.88;2.38;;;0.50;99.90;;;;;;5034494;28;20088;-62
2023/12/05 04:46:43;;;;;;;4.35;2.30;;;0.50;99.90;;;;;;5000236;28;20053;-62
2023/12/05 04:49:09;;;;;;;3.70;2.15;;;0.50;99.90;;;;;;5031637;28;20041;-62
2023/12/05 04:51:36;;;;;;;4.90;2.65;;;0.50;99.90;;;;;;5030882;28;20490;-62
2023/12/05 04:54:03;;;;;;;7.03;2.50;;;0.50;99.90;;;;;;5034259;28;20049;-62
2023/12/05 04:56:30;;;;;;;7.15;2.70;;;0.40;99.90;;;;;;5031500;28;20048;-62
2023/12/05 04:58:56;;;;;;;5.70;3.22;;;0.40;99.90;;;;;;5030936;28;20037;-62
2023/12/05 05:01:23;;;;;;;9.50;2.60;;;0.50;99.90;;;;;;5033373;28;20051;-62
2023/12/05 05:03:50;;;;;;;5.25;2.97;;;0.50;99.90;;;;;;5030415;28;20573;-62
2023/12/05 05:06:18;;;;;;;8.15;4.47;;;0.50;99.90;;;;;;5033868;28;20037;-62
2023/12/05 05:08:45;;;;;;;5.95;3.38;;;0.50;99.90;;;;;;5033041;28;20082;-62
2023/12/05 05:11:12;;;;;;;5.78;3.50;;;0.50;99.90;;;;;;5032532;28;20055;-63
2023/12/05 05:13:38;;;;;;;5.70;3.53;;;0.50;99.90;;;;;;5034274;28;20552;-62
2023/12/05 05:16:18;;;;;;;11.75;4.47;;;0.50;99.90;;;;;;5032926;28;20044;-63
2023/12/05 05:18:45;;;;;;;8.32;4.07;;;0.50;99.90;;;;;;5015082;28;20045;-63
2023/12/05 05:21:12;;;;;;;4.90;3.58;;;0.50;99.90;;;;;;5025874;28;20041;-63
2023/12/05 05:23:39;;;;;;;4.47;2.53;;;0.50;99.90;;;;;;5029799;28;20049;-62
2023/12/05 05:26:06;;;;;;;5.90;3.15;;;0.60;99.90;;;;;;5029897;28;20069;-60
2023/12/05 05:28:32;;;;;;;8.10;2.92;;;0.60;99.90;;;;;;5015242;28;20048;-62
2023/12/05 05:31:00;;;;;;;5.97;2.42;;;0.50;99.90;;;;;;5028089;28;20049;-62
2023/12/05 05:33:27;;;;;;;9.95;3.28;;;0.60;99.90;;;;;;5032397;28;20041;-62
2023/12/05 05:35:55;;;;;;;9.90;4.00;;;0.50;99.90;;;;;;5028907;28;20073;-62
2023/12/05 05:38:21;;;;;;;4.18;2.10;;;0.60;99.90;;;;;;5034377;28;20041;-62
2023/12/05 05:40:48;;;;;;;6.68;3.25;;;0.60;99.90;;;;;;5031737;28;20073;-63
2023/12/05 05:43:15;;;;;;;5.93;3.17;;;0.60;99.90;;;;;;5027530;28;20052;-62
2023/12/05 05:45:42;;;;;;;4.75;2.70;;;0.70;99.90;;;;;;5015495;28;20052;-62
2023/12/05 05:48:09;;;;;;;9.35;3.20;;;0.60;99.90;;;;;;5028108;28;20048;-62
2023/12/05 05:50:40;;;;;;;4.35;2.70;;;0.60;99.90;;;;;;5033224;28;20036;-60
2023/12/05 05:53:07;;;;;;;9.13;3.92;;;0.60;99.90;;;;;;5032807;28;20043;-61
2023/12/05 05:55:33;;;;;;;10.18;3.72;;;0.60;99.90;;;;;;5014472;28;20103;-63
2023/12/05 05:58:00;;;;;;;9.68;4.60;;;0.60;99.90;;;;;;5032596;28;20041;-62
2023/12/05 06:00:27;;;;;;;7.05;3.30;;;0.60;99.90;;;;;;5030221;28;20045;-62
2023/12/05 06:02:54;;;;;;;6.78;3.80;;;0.60;99.90;;;;;;5030615;28;20072;-62
2023/12/05 06:05:21;;;;;;;11.70;4.40;;;0.50;99.90;;;;;;5014890;28;20056;-61
2023/12/05 06:07:48;;;;;;;12.93;4.03;;;0.50;99.90;;;;;;5015030;28;20048;-62
2023/12/05 06:10:16;;;;;;;;;;;0.40;99.90;;;;;;5013762;28;20065;-62
2023/12/05 06:12:43;;;;;;;7.78;3.35;;;0.40;99.90;;;;;;5014952;28;19921;-62
2023/12/05 06:15:10;;;;;;;8.90;4.00;;;0.40;99.90;;;;;;5023281;28;20488;-62
2023/12/05 06:17:36;;;;;;;9.00;4.40;;;0.40;99.90;;;;;;5031827;28;20742;-65
2023/12/05 06:20:05;;;;;;;11.38;6.40;;;0.40;99.90;;;;;;5029691;28;20041;-61
2023/12/05 06:22:32;;;;;;;8.82;5.97;;;0.40;99.90;;;;;;5029053;28;20664;-62
2023/12/05 06:24:59;;;;;;;9.07;6.13;;;0.40;99.90;;;;;;5031877;28;20131;-62
2023/12/05 06:27:26;;;;;;;8.55;5.20;;;0.40;99.90;;;;;;5032736;28;20193;-62
2023/12/05 06:29:53;;;;;;;10.90;6.20;;;0.40;99.90;;;;;;5031157;28;20134;-62
2023/12/05 06:32:20;;;;;;;12.70;5.47;;;0.50;99.90;;;;;;5032298;28;20449;-63
2023/12/05 06:34:46;;;;;;;11.25;4.72;;;0.50;99.90;;;;;;5032915;28;20080;-62
2023/12/05 06:37:13;;;;;;;14.48;5.25;;;0.40;99.90;;;;;;5032501;28;20429;-64
2023/12/05 06:39:40;;;;;;;11.93;4.20;;;0.40;99.90;;;;;;5024489;28;20056;-62
2023/12/05 06:42:07;;;;;;;11.23;5.05;;;0.40;99.90;;;;;;5032117;28;20548;-62
2023/12/05 06:44:33;;;;;;;6.28;3.42;;;0.30;99.90;;;;;;5030818;28;20042;-62
2023/12/05 06:47:00;;;;;;;9.73;4.63;;;0.30;99.90;;;;;;5032437;28;20049;-62
2023/12/05 06:49:27;;;;;;;9.90;4.70;;;0.30;99.90;;;;;;5031391;28;20038;-62
2023/12/05 06:52:00;;;;;;;10.82;5.18;;;0.30;99.90;;;;;;5025892;28;20129;-62
2023/12/05 06:54:26;;;;;;;9.90;5.43;;;0.30;99.90;;;;;;5031056;28;20055;-62
2023/12/05 06:56:53;;;;;;;9.23;4.82;;;0.40;99.90;;;;;;5014015;28;20543;-62
2023/12/05 06:59:20;;;;;;;10.90;5.63;;;0.40;99.90;;;;;;5032459;28;20504;-63
2023/12/05 07:01:47;;;;;;;10.93;5.50;;;0.40;99.90;;;;;;5029119;28;20056;-62
2023/12/05 07:04:14;;;;;;;11.52;5.72;;;0.50;99.90;;;;;;5030160;28;20041;-62
2023/12/05 07:06:41;;;;;;;14.30;5.78;;;0.40;99.90;;;;;;5031778;28;20448;-62
2023/12/05 07:09:10;;;;;;;13.48;6.20;;;0.50;99.90;;;;;;5031437;28;20042;-62
2023/12/05 07:11:36;;;;;;;13.35;6.78;;;0.50;99.90;;;;;;5029015;28;20505;-62
2023/12/05 07:14:03;;;;;;;13.82;7.10;;;0.50;99.90;;;;;;5022061;28;20065;-62
2023/12/05 07:16:30;;;;;;;15.38;6.75;;;0.50;99.90;;;;;;5031974;28;20063;-62
2023/12/05 07:18:57;;;;;;;13.85;7.95;;;0.50;99.90;;;;;;5031708;28;20068;-62
2023/12/05 07:21:24;;;;;;;21.63;7.60;;;0.60;99.90;;;;;;5030981;28;20474;-61
2023/12/05 07:23:51;;;;;;;16.08;7.28;;;0.70;99.90;;;;;;5030230;28;20041;-62
2023/12/05 07:26:26;;;;;;;16.50;7.53;;;0.70;99.90;;;;;;5023508;28;20041;-62
2023/12/05 07:28:53;;;;;;;15.35;7.75;;;0.70;99.90;;;;;;5031743;28;20480;-62
2023/12/05 07:31:20;;;;;;;14.65;6.88;;;0.70;99.90;;;;;;5028386;28;20048;-62
2023/12/05 07:33:48;;;;;;;14.02;7.10;;;0.70;99.90;;;;;;5031728;28;20124;-62
2023/12/05 07:36:15;;;;;;;26.02;10.18;;;0.80;99.90;;;;;;5031320;28;20549;-62
2023/12/05 07:38:41;;;;;;;22.00;10.57;;;0.80;99.90;;;;;;5031720;28;20049;-62
2023/12/05 07:41:25;;;;;;;22.98;10.05;;;0.90;99.90;;;;;;5023164;28;20049;-63
2023/12/05 07:44:03;;;;;;;23.77;10.05;;;1.00;99.90;;;;;;4998042;28;20069;-62
2023/12/05 07:46:45;;;;;;;15.95;9.13;;;1.10;99.90;;;;;;4997735;28;20041;-62
2023/12/05 07:49:12;;;;;;;23.98;8.55;;;1.20;99.90;;;;;;5031505;28;20064;-62
2023/12/05 07:51:39;;;;;;;18.40;7.13;;;1.20;99.90;;;;;;5030935;28;20043;-62
2023/12/05 07:54:05;;;;;;;9.52;4.82;;;1.20;99.90;;;;;;5028752;28;20049;-62
2023/12/05 07:56:33;;;;;;;;;;;1.20;99.90;;;;;;5025500;28;20045;-62
2023/12/05 07:58:59;;;;;;;11.27;7.35;;;1.30;99.90;;;;;;5031138;28;19958;-62
2023/12/05 08:01:26;;;;;;;14.93;8.13;;;1.40;99.90;;;;;;5031004;28;20375;-62
2023/12/05 08:03:53;;;;;;;17.27;8.38;;;1.40;99.90;;;;;;5019629;28;20129;-62
2023/12/05 08:06:20;;;;;;;20.42;9.82;;;1.50;99.90;;;;;;5030959;28;20041;-62
2023/12/05 08:08:47;;;;;;;18.38;7.72;;;1.70;99.90;;;;;;5028238;28;20052;-62
2023/12/05 08:11:14;;;;;;;12.30;6.47;;;1.80;99.90;;;;;;5028447;28;20121;-62
2023/12/05 08:13:41;;;;;;;10.30;4.57;;;1.80;99.90;;;;;;5026349;28;20062;-62
2023/12/05 08:16:08;;;;;;;10.40;5.70;;;1.80;99.90;;;;;;5028228;28;20167;-62
2023/12/05 08:18:36;;;;;;;;;;;1.70;99.90;;;;;;5030250;28;20069;-63
2023/12/05 08:21:03;;;;;;;13.57;7.28;;;1.60;99.90;;;;;;5033085;28;19921;-62
2023/12/05 08:23:30;;;;;;;17.45;7.22;;;1.40;99.90;;;;;;5034910;28;20389;-62
2023/12/05 08:25:57;;;;;;;18.67;7.57;;;1.20;99.90;;;;;;5025088;28;20127;-62
2023/12/05 08:28:24;;;;;;;13.57;7.10;;;1.10;99.90;;;;;;5026979;28;20426;-62
2023/12/05 08:30:51;;;;;;;16.65;7.65;;;1.00;99.90;;;;;;5034634;28;20045;-62
2023/12/05 08:33:18;;;;;;;12.45;7.28;;;1.00;99.90;;;;;;5034827;28;20057;-62
2023/12/05 08:35:45;;;;;;;;;;;1.00;99.90;;;;;;5028409;28;20099;-63
2023/12/05 08:38:12;;;;;;;19.05;8.25;;;1.00;99.90;;;;;;5034739;28;19925;-62
2023/12/05 08:40:39;;;;;;;21.83;8.40;;;1.00;99.90;;;;;;5033845;28;21265;-63
2023/12/05 08:43:06;;;;;;;18.40;8.23;;;0.90;99.90;;;;;;5034424;28;20041;-62
2023/12/05 08:45:33;;;;;;;14.10;8.15;;;0.90;99.90;;;;;;5028214;28;20030;-62
2023/12/05 08:47:59;;;;;;;16.02;8.50;;;0.90;99.90;;;;;;5034519;28;20669;-62
2023/12/05 08:50:27;;;;;;;21.08;11.60;;;0.90;99.90;;;;;;5028651;28;20041;-62
2023/12/05 08:52:53;;;;;;;25.58;11.63;;;0.80;99.90;;;;;;5016065;28;20046;-62
2023/12/05 08:55:20;;;;;;;20.85;10.95;;;0.80;99.90;;;;;;5033325;28;20049;-62
2023/12/05 08:57:47;;;;;;;17.30;8.85;;;0.80;99.90;;;;;;5030975;28;20490;-62
2023/12/05 09:00:14;;;;;;;18.70;10.07;;;0.80;99.90;;;;;;5031390;28;20049;-62
2023/12/05 09:02:41;;;;;;;23.63;11.00;;;0.80;99.90;;;;;;5026837;28;20038;-63
2023/12/05 09:05:08;;;;;;;19.95;9.88;;;0.90;99.90;;;;;;5033578;28;20049;-62
2023/12/05 09:07:35;;;;;;;15.80;8.85;;;0.90;99.90;;;;;;5034156;28;20033;-62
2023/12/05 09:10:02;;;;;;;17.40;7.63;;;0.90;99.90;;;;;;5034361;28;20072;-62
2023/12/05 09:12:29;;;;;;;17.92;7.63;;;0.90;99.90;;;;;;5025853;28;20037;-61
2023/12/05 09:14:55;;;;;;;16.95;8.20;;;0.80;99.90;;;;;;5034332;28;20092;-62
2023/12/05 09:17:22;;;;;;;24.35;12.27;;;0.80;99.90;;;;;;5034243;28;20516;-62
2023/12/05 09:19:50;;;;;;;29.80;12.15;;;0.80;99.90;;;;;;5030095;28;20453;-62
2023/12/05 09:22:17;;;;;;;55.90;20.45;;;0.90;99.90;;;;;;5033436;28;20045;-62
2023/12/05 09:24:44;;;;;;;63.25;21.00;;;1.00;99.90;;;;;;5025622;28;20124;-62
2023/12/05 09:27:12;;;;;;;47.90;17.60;;;1.20;99.90;;;;;;5033881;28;20053;-62
2023/12/05 09:29:39;;;;;;;26.38;12.63;;;1.50;99.90;;;;;;5033406;28;20457;-63
2023/12/05 09:32:17;;;;;;;17.48;8.50;;;1.80;99.90;;;;;;5025463;28;20053;-62
2023/12/05 09:34:44;;;;;;;17.27;8.50;;;2.00;99.90;;;;;;5029368;28;20049;-62
2023/12/05 09:37:12;;;;;;;18.17;8.52;;;1.90;99.90;;;;;;5039677;28;20115;-62
2023/12/05 09:39:39;;;;;;;18.17;7.63;;;1.90;99.90;;;;;;5032850;28;20128;-62
2023/12/05 09:42:11;;;;;;;12.82;7.72;;;1.90;99.90;;;;;;5029133;28;20041;-62
2023/12/05 09:44:46;;;;;;;14.75;7.85;;;1.80;99.90;;;;;;5031050;28;20049;-62
2023/12/05 09:47:20;;;;;;;19.02;9.15;;;1.70;99.90;;;;;;5015609;28;20041;-62
2023/12/05 09:49:48;;;;;;;15.98;8.85;;;1.70;99.90;;;;;;5028812;28;20502;-63
2023/12/05 09:52:16;;;;;;;22.33;9.38;;;1.60;99.90;;;;;;5033074;28;20111;-62
2023/12/05 09:54:43;;;;;;;21.10;10.35;;;1.50;99.90;;;;;;5032740;28;20375;-62
2023/12/05 09:57:12;;;;;;;18.65;9.55;;;1.50;99.90;;;;;;5033348;28;20128;-62
2023/12/05 09:59:39;;;;;;;20.63;10.25;;;1.50;99.90;;;;;;5027819;28;20049;-62
2023/12/05 10:02:07;;;;;;;15.27;8.45;;;1.50;99.90;;;;;;5032776;28;20051;-62
2023/12/05 10:04:42;;;;;;;14.60;8.27;;;1.50;99.90;;;;;;5025245;28;20034;-62
2023/12/05 10:07:11;;;;;;;19.95;9.43;;;1.50;99.90;;;;;;5032806;28;20045;-62
2023/12/05 10:09:42;;;;;;;24.77;9.77;;;1.50;99.90;;;;;;5025723;28;20061;-62
2023/12/05 10:12:11;;;;;;;21.55;10.60;;;1.40;99.90;;;;;;5032601;28;20041;-62
2023/12/05 10:14:39;;;;;;;21.58;11.38;;;1.50;99.90;;;;;;5033158;28;20049;-63
2023/12/05 10:17:07;;;;;;;20.73;11.18;;;1.50;99.90;;;;;;5029172;28;20041;-62
2023/12/05 10:19:34;;;;;;;28.38;11.85;;;1.60;99.90;;;;;;5031143;28;20371;-63
2023/12/05 10:22:02;;;;;;;20.05;10.27;;;1.70;99.90;;;;;;5014661;28;20072;-62
2023/12/05 10:24:39;;;;;;;19.35;10.88;;;1.70;99.90;;;;;;5031753;28;20045;-62
2023/12/05 10:27:07;;;;;;;17.15;8.13;;;1.80;99.90;;;;;;5033112;28;20045;-62
2023/12/05 10:29:36;;;;;;;;;;;1.80;99.90;;;;;;5031759;28;20044;-63
2023/12/05 10:32:03;;;;;;;18.42;10.70;;;1.80;99.90;;;;;;5032507;28;20390;-63
2023/12/05 10:34:30;;;;;;;24.88;10.27;;;1.90;99.90;;;;;;5031576;28;20051;-63
2023/12/05 10:37:03;;;;;;;20.52;10.02;;;1.90;99.90;;;;;;5031839;28;20041;-63
2023/12/05 10:39:35;;;;;;;20.67;10.27;;;1.90;99.90;;;;;;5025899;28;20083;-63
2023/12/05 10:42:02;;;;;;;16.63;9.50;;;2.10;99.90;;;;;;5029960;28;20107;-63
2023/12/05 10:44:38;;;;;;;23.58;10.40;;;2.20;99.90;;;;;;5031391;28;20045;-63
2023/12/05 10:47:06;;;;;;;23.90;12.65;;;2.30;99.90;;;;;;5032337;28;20041;-62
2023/12/05 10:49:34;;;;;;;30.70;14.77;;;2.30;99.90;;;;;;5032092;28;20045;-62
2023/12/05 10:52:03;;;;;;;29.23;12.98;;;2.40;99.90;;;;;;5021644;28;20041;-63
2023/12/05 10:54:30;;;;;;;26.95;13.00;;;2.40;99.90;;;;;;5032248;28;20060;-63
2023/12/05 10:56:58;;;;;;;17.42;10.52;;;2.50;99.90;;;;;;5032497;28;20128;-62
2023/12/05 10:59:27;;;;;;;18.48;9.13;;;2.70;99.90;;;;;;5025479;28;20367;-63
2023/12/05 11:01:58;;;;;;;18.17;9.30;;;2.80;99.90;;;;;;5031697;28;20087;-62
2023/12/05 11:04:25;;;;;;;15.30;9.32;;;2.70;99.90;;;;;;5028529;28;20192;-63
2023/12/05 11:06:52;;;;;;;21.63;9.48;;;2.80;99.90;;;;;;5028070;28;20041;-62
2023/12/05 11:09:19;;;;;;;18.80;9.38;;;2.80;99.90;;;;;;5030865;28;20066;-63
2023/12/05 11:11:48;;;;;;;;;;;2.80;99.90;;;;;;5030887;28;20132;-63
2023/12/05 11:14:15;;;;;;;16.05;8.88;;;2.80;99.90;;;;;;5017068;28;19921;-62
2023/12/05 11:16:48;;;;;;;20.65;10.05;;;2.80;99.90;;;;;;5031124;28;20053;-63
2023/12/05 11:19:41;;;;;;;19.17;9.57;;;3.00;99.90;;;;;;5031738;28;20055;-63
2023/12/05 11:22:26;;;;;;;18.77;9.70;;;3.10;99.90;;;;;;5026943;28;20096;-63
2023/12/05 11:25:14;;;;;;;17.00;9.32;;;3.10;99.90;;;;;;5025293;28;20057;-63
2023/12/05 11:28:10;;;;;;;15.88;8.57;;;3.10;99.90;;;;;;5031778;28;20124;-63
2023/12/05 11:31:03;;;;;;;16.25;8.57;;;3.10;99.90;;;;;;5031533;28;20426;-63
2023/12/05 11:33:46;;;;;;;15.68;8.82;;;3.20;99.90;;;;;;5025346;28;20049;-63
2023/12/05 11:36:36;;;;;;;21.33;9.55;;;3.20;99.90;;;;;;5031598;28;20053;-63
2023/12/05 11:39:04;;;;;;;17.45;8.50;;;3.20;99.90;;;;;;5026361;28;20057;-63
2023/12/05 11:41:31;;;;;;;12.68;8.38;;;3.20;99.90;;;;;;5023314;28;20498;-63
2023/12/05 11:44:13;;;;;;;10.68;5.82;;;3.10;99.90;;;;;;5026208;28;20049;-63
2023/12/05 11:46:44;;;;;;;15.52;9.77;;;3.10;99.90;;;;;;5030801;28;20037;-63
2023/12/05 11:49:10;;;;;;;18.10;9.60;;;3.10;99.90;;;;;;5027708;28;20042;-63
2023/12/05 11:51:37;;;;;;;16.15;9.00;;;3.20;99.90;;;;;;5030365;28;20055;-63
2023/12/05 11:54:07;;;;;;;22.05;9.00;;;3.20;99.90;;;;;;5013942;28;20045;-63
2023/12/05 11:56:34;;;;;;;17.55;9.27;;;3.30;99.90;;;;;;5031334;28;20055;-63
2023/12/05 11:59:18;;;;;;;21.85;9.07;;;3.40;99.90;;;;;;5030508;28;20056;-63
2023/12/05 12:01:48;;;;;;;19.60;10.30;;;3.40;99.90;;;;;;5027449;28;20397;-63
2023/12/05 12:04:22;;;;;;;21.15;9.98;;;3.40;99.90;;;;;;5036133;28;20091;-63
2023/12/05 12:06:50;;;;;;;20.23;9.45;;;3.40;99.90;;;;;;5030425;28;20061;-63
2023/12/05 12:09:17;;;;;;;16.25;8.90;;;3.40;99.90;;;;;;5029681;28;20041;-63
2023/12/05 12:11:44;;;;;;;21.67;9.65;;;3.40;99.90;;;;;;5028184;28;20041;-63
2023/12/05 12:14:16;;;;;;;14.27;8.20;;;3.30;99.90;;;;;;5031485;28;20486;-63
2023/12/05 12:16:44;;;;;;;18.48;9.68;;;3.30;99.90;;;;;;5030949;28;20040;-63
2023/12/05 12:19:12;;;;;;;14.35;8.32;;;3.30;99.90;;;;;;5029791;28;20052;-63
2023/12/05 12:21:39;;;;;;;17.13;9.43;;;3.30;99.90;;;;;;5025470;28;20050;-63
2023/12/05 12:24:07;;;;;;;13.18;8.70;;;3.40;99.90;;;;;;5030541;28;20033;-63
2023/12/05 12:26:34;;;;;;;14.65;8.75;;;3.40;99.90;;;;;;5030074;28;20040;-63
2023/12/05 12:29:11;;;;;;;20.63;9.30;;;3.40;99.90;;;;;;5031396;28;20052;-63
2023/12/05 12:31:38;;;;;;;22.90;9.00;;;3.40;99.90;;;;;;5025176;28;20108;-63
2023/12/05 12:34:09;;;;;;;20.73;10.70;;;3.40;99.90;;;;;;5031317;28;20041;-63
2023/12/05 12:36:37;;;;;;;20.08;10.45;;;3.30;99.90;;;;;;5030899;28;20398;-63
2023/12/05 12:39:04;;;;;;;18.52;10.10;;;3.30;99.90;;;;;;5028894;28;20693;-63
2023/12/05 12:41:31;;;;;;;;;;;3.20;99.90;;;;;;5028743;28;20133;-63
2023/12/05 12:43:58;;;;;;;19.73;10.27;;;3.10;99.90;;;;;;5030990;28;19921;-62
2023/12/05 12:46:25;;;;;;;21.38;9.98;;;3.20;99.90;;;;;;5030623;28;20048;-64
2023/12/05 12:48:51;;;;;;;28.40;12.65;;;3.20;99.90;;;;;;5020279;28;20045;-63
2023/12/05 12:51:18;;;;;;;29.20;16.70;;;3.20;99.90;;;;;;5030826;28;20133;-63
2023/12/05 12:53:46;;;;;;;34.45;19.27;;;3.20;99.90;;;;;;5030976;28;20033;-63
2023/12/05 12:56:13;;;;;;;42.03;20.58;;;3.20;99.90;;;;;;5027926;28;20041;-62
2023/12/05 12:58:42;;;;;;;40.50;19.33;;;3.20;99.90;;;;;;5013249;28;20049;-63
2023/12/05 13:01:13;;;;;;;34.40;16.83;;;3.20;99.90;;;;;;5033211;28;20116;-63